sensor_id;sensor_type;location;lat;lon;timestamp;temperature;humidity
69009;SHT31;56065;52.472;13.380;2023-05-10T00:00:55;13.83;60.35
69009;SHT31;56065;52.472;13.380;2023-05-10T00:03:20;13.78;60.63
69009;SHT31;56065;52.472;13.380;2023-05-10T00:05:45;13.76;60.46
69009;SHT31;56065;52.472;13.380;2023-05-10T00:08:11;13.78;60.51
69009;SHT31;56065;52.472;13.380;2023-05-10T00:10:36;13.76;60.63
69009;SHT31;56065;52.472;13.380;2023-05-10T00:13:02;13.74;60.79
69009;SHT31;56065;52.472;13.380;2023-05-10T00:15:28;13.68;60.81
69009;SHT31;56065;52.472;13.380;2023-05-10T00:17:55;13.71;60.89
69009;SHT31;56065;52.472;13.380;2023-05-10T00:20:21;13.59;61.13
69009;SHT31;56065;52.472;13.380;2023-05-10T00:22:46;13.57;60.97
69009;SHT31;56065;52.472;13.380;2023-05-10T00:25:11;13.51;61.36
69009;SHT31;56065;52.472;13.380;2023-05-10T00:27:37;13.50;61.44
69009;SHT31;56065;52.472;13.380;2023-05-10T00:30:02;13.44;61.92
69009;SHT31;56065;52.472;13.380;2023-05-10T00:32:28;13.38;61.93
69009;SHT31;56065;52.472;13.380;2023-05-10T00:34:53;13.27;62.23
69009;SHT31;56065;52.472;13.380;2023-05-10T00:37:18;13.21;62.39
69009;SHT31;56065;52.472;13.380;2023-05-10T00:39:44;13.11;62.71
69009;SHT31;56065;52.472;13.380;2023-05-10T00:42:09;13.04;62.79
69009;SHT31;56065;52.472;13.380;2023-05-10T00:44:35;12.94;62.96
69009;SHT31;56065;52.472;13.380;2023-05-10T00:47:00;12.86;63.35
69009;SHT31;56065;52.472;13.380;2023-05-10T00:49:25;12.84;63.15
69009;SHT31;56065;52.472;13.380;2023-05-10T00:51:51;12.75;63.36
69009;SHT31;56065;52.472;13.380;2023-05-10T00:54:17;12.75;63.44
69009;SHT31;56065;52.472;13.380;2023-05-10T00:56:43;12.69;63.65
69009;SHT31;56065;52.472;13.380;2023-05-10T00:59:14;12.69;63.52
69009;SHT31;56065;52.472;13.380;2023-05-10T01:01:41;12.67;63.79
69009;SHT31;56065;52.472;13.380;2023-05-10T01:04:06;12.62;63.98
69009;SHT31;56065;52.472;13.380;2023-05-10T01:06:32;12.59;63.96
69009;SHT31;56065;52.472;13.380;2023-05-10T01:08:58;12.55;63.95
69009;SHT31;56065;52.472;13.380;2023-05-10T01:11:23;12.55;64.17
69009;SHT31;56065;52.472;13.380;2023-05-10T01:13:55;12.53;64.19
69009;SHT31;56065;52.472;13.380;2023-05-10T01:16:22;12.52;64.18
69009;SHT31;56065;52.472;13.380;2023-05-10T01:18:49;12.52;64.26
69009;SHT31;56065;52.472;13.380;2023-05-10T01:21:38;12.49;64.28
69009;SHT31;56065;52.472;13.380;2023-05-10T01:24:25;12.52;64.23
69009;SHT31;56065;52.472;13.380;2023-05-10T01:27:02;12.42;64.45
69009;SHT31;56065;52.472;13.380;2023-05-10T01:37:55;12.28;64.88
69009;SHT31;56065;52.472;13.380;2023-05-10T01:40:39;12.26;65.07
69009;SHT31;56065;52.472;13.380;2023-05-10T01:43:17;12.24;65.19
69009;SHT31;56065;52.472;13.380;2023-05-10T01:45:59;12.17;65.35
69009;SHT31;56065;52.472;13.380;2023-05-10T01:48:27;12.15;65.44
69009;SHT31;56065;52.472;13.380;2023-05-10T01:50:53;12.12;65.49
69009;SHT31;56065;52.472;13.380;2023-05-10T01:53:20;12.11;65.63
69009;SHT31;56065;52.472;13.380;2023-05-10T01:55:48;12.10;65.43
69009;SHT31;56065;52.472;13.380;2023-05-10T01:58:19;12.10;65.38
69009;SHT31;56065;52.472;13.380;2023-05-10T02:00:46;12.06;65.72
69009;SHT31;56065;52.472;13.380;2023-05-10T02:03:12;12.08;65.74
69009;SHT31;56065;52.472;13.380;2023-05-10T02:05:40;11.99;65.94
69009;SHT31;56065;52.472;13.380;2023-05-10T02:08:07;11.98;65.96
69009;SHT31;56065;52.472;13.380;2023-05-10T02:10:35;11.95;66.02
69009;SHT31;56065;52.472;13.380;2023-05-10T02:13:02;11.95;66.33
69009;SHT31;56065;52.472;13.380;2023-05-10T02:15:28;11.87;66.23
69009;SHT31;56065;52.472;13.380;2023-05-10T02:17:56;11.80;66.57
69009;SHT31;56065;52.472;13.380;2023-05-10T02:20:23;11.75;66.48
69009;SHT31;56065;52.472;13.380;2023-05-10T02:22:50;11.71;66.79
69009;SHT31;56065;52.472;13.380;2023-05-10T02:25:18;11.75;66.81
69009;SHT31;56065;52.472;13.380;2023-05-10T02:27:44;11.70;66.83
69009;SHT31;56065;52.472;13.380;2023-05-10T02:30:12;11.67;66.79
69009;SHT31;56065;52.472;13.380;2023-05-10T02:32:38;11.63;66.94
69009;SHT31;56065;52.472;13.380;2023-05-10T02:35:04;11.56;67.15
69009;SHT31;56065;52.472;13.380;2023-05-10T02:37:30;11.54;67.23
69009;SHT31;56065;52.472;13.380;2023-05-10T02:39:58;11.54;67.22
69009;SHT31;56065;52.472;13.380;2023-05-10T02:42:26;11.50;67.31
69009;SHT31;56065;52.472;13.380;2023-05-10T02:44:57;11.50;67.41
69009;SHT31;56065;52.472;13.380;2023-05-10T02:47:24;11.44;67.68
69009;SHT31;56065;52.472;13.380;2023-05-10T02:49:49;11.43;67.71
69009;SHT31;56065;52.472;13.380;2023-05-10T02:52:21;11.44;67.59
69009;SHT31;56065;52.472;13.380;2023-05-10T02:54:50;11.44;67.55
69009;SHT31;56065;52.472;13.380;2023-05-10T02:57:22;11.37;67.73
69009;SHT31;56065;52.472;13.380;2023-05-10T02:59:50;11.39;67.81
69009;SHT31;56065;52.472;13.380;2023-05-10T03:02:15;11.40;67.72
69009;SHT31;56065;52.472;13.380;2023-05-10T03:04:41;11.33;67.87
69009;SHT31;56065;52.472;13.380;2023-05-10T03:07:07;11.32;67.85
69009;SHT31;56065;52.472;13.380;2023-05-10T03:09:33;11.32;67.82
69009;SHT31;56065;52.472;13.380;2023-05-10T03:12:41;11.25;68.13
69009;SHT31;56065;52.472;13.380;2023-05-10T03:20:38;11.15;68.03
69009;SHT31;56065;52.472;13.380;2023-05-10T03:23:10;11.20;68.02
69009;SHT31;56065;52.472;13.380;2023-05-10T03:25:37;11.22;67.95
69009;SHT31;56065;52.472;13.380;2023-05-10T03:28:04;11.22;67.86
69009;SHT31;56065;52.472;13.380;2023-05-10T03:30:30;11.27;67.72
69009;SHT31;56065;52.472;13.380;2023-05-10T03:32:55;11.20;68.02
69009;SHT31;56065;52.472;13.380;2023-05-10T03:35:22;11.20;67.97
69009;SHT31;56065;52.472;13.380;2023-05-10T03:37:48;11.22;67.97
69009;SHT31;56065;52.472;13.380;2023-05-10T03:40:14;11.19;67.98
69009;SHT31;56065;52.472;13.380;2023-05-10T03:42:39;11.20;67.97
69009;SHT31;56065;52.472;13.380;2023-05-10T03:45:05;11.19;68.05
69009;SHT31;56065;52.472;13.380;2023-05-10T03:47:31;11.19;67.97
69009;SHT31;56065;52.472;13.380;2023-05-10T03:49:57;11.19;67.98
69009;SHT31;56065;52.472;13.380;2023-05-10T03:52:22;11.15;68.16
69009;SHT31;56065;52.472;13.380;2023-05-10T03:54:48;11.20;68.15
69009;SHT31;56065;52.472;13.380;2023-05-10T03:57:13;11.20;68.11
69009;SHT31;56065;52.472;13.380;2023-05-10T03:59:38;11.22;68.00
69009;SHT31;56065;52.472;13.380;2023-05-10T04:02:04;11.19;68.04
69009;SHT31;56065;52.472;13.380;2023-05-10T04:04:29;11.26;67.85
69009;SHT31;56065;52.472;13.380;2023-05-10T04:06:55;11.26;67.78
69009;SHT31;56065;52.472;13.380;2023-05-10T04:09:20;11.32;67.76
69009;SHT31;56065;52.472;13.380;2023-05-10T04:11:46;11.32;67.76
69009;SHT31;56065;52.472;13.380;2023-05-10T04:14:11;11.33;67.85
69009;SHT31;56065;52.472;13.380;2023-05-10T04:16:36;11.37;67.67
69009;SHT31;56065;52.472;13.380;2023-05-10T04:19:01;11.40;67.59
69009;SHT31;56065;52.472;13.380;2023-05-10T04:21:27;11.46;67.65
69009;SHT31;56065;52.472;13.380;2023-05-10T04:23:53;11.47;67.54
69009;SHT31;56065;52.472;13.380;2023-05-10T04:26:18;11.49;67.60
69009;SHT31;56065;52.472;13.380;2023-05-10T04:28:43;11.53;67.47
69009;SHT31;56065;52.472;13.380;2023-05-10T04:31:09;11.54;67.23
69009;SHT31;56065;52.472;13.380;2023-05-10T04:33:36;11.64;67.34
69009;SHT31;56065;52.472;13.380;2023-05-10T04:36:02;11.70;67.29
69009;SHT31;56065;52.472;13.380;2023-05-10T04:38:28;11.75;66.95
69009;SHT31;56065;52.472;13.380;2023-05-10T04:40:54;11.83;67.10
69009;SHT31;56065;52.472;13.380;2023-05-10T04:43:19;11.90;66.77
69009;SHT31;56065;52.472;13.380;2023-05-10T04:45:45;11.94;66.48
69009;SHT31;56065;52.472;13.380;2023-05-10T04:48:10;12.05;66.71
69009;SHT31;56065;52.472;13.380;2023-05-10T04:50:37;12.10;66.41
69009;SHT31;56065;52.472;13.380;2023-05-10T04:53:02;12.20;66.10
69009;SHT31;56065;52.472;13.380;2023-05-10T04:55:27;12.24;65.92
69009;SHT31;56065;52.472;13.380;2023-05-10T04:57:53;12.34;65.84
69009;SHT31;56065;52.472;13.380;2023-05-10T05:00:20;12.41;65.79
69009;SHT31;56065;52.472;13.380;2023-05-10T05:02:45;12.46;65.93
69009;SHT31;56065;52.472;13.380;2023-05-10T05:05:12;12.57;65.38
69009;SHT31;56065;52.472;13.380;2023-05-10T05:07:37;12.70;65.55
69009;SHT31;56065;52.472;13.380;2023-05-10T05:10:07;12.75;65.04
69009;SHT31;56065;52.472;13.380;2023-05-10T05:12:34;12.87;64.96
69009;SHT31;56065;52.472;13.380;2023-05-10T05:15:00;13.03;64.46
69009;SHT31;56065;52.472;13.380;2023-05-10T05:17:25;13.02;64.34
69009;SHT31;56065;52.472;13.380;2023-05-10T05:19:51;13.21;64.09
69009;SHT31;56065;52.472;13.380;2023-05-10T05:22:16;13.31;63.69
69009;SHT31;56065;52.472;13.380;2023-05-10T05:24:42;13.43;62.95
69009;SHT31;56065;52.472;13.380;2023-05-10T05:27:08;13.43;62.99
69009;SHT31;56065;52.472;13.380;2023-05-10T05:29:33;13.48;62.45
69009;SHT31;56065;52.472;13.380;2023-05-10T05:31:59;13.65;62.52
69009;SHT31;56065;52.472;13.380;2023-05-10T05:34:24;13.75;62.68
69009;SHT31;56065;52.472;13.380;2023-05-10T05:36:50;13.79;62.77
69009;SHT31;56065;52.472;13.380;2023-05-10T05:39:15;13.86;62.00
69009;SHT31;56065;52.472;13.380;2023-05-10T05:41:41;13.95;62.06
69009;SHT31;56065;52.472;13.380;2023-05-10T05:44:06;14.13;62.12
69009;SHT31;56065;52.472;13.380;2023-05-10T05:46:32;14.24;61.57
69009;SHT31;56065;52.472;13.380;2023-05-10T05:48:57;14.30;61.62
69009;SHT31;56065;52.472;13.380;2023-05-10T05:51:22;14.22;61.41
69009;SHT31;56065;52.472;13.380;2023-05-10T05:53:48;14.44;61.79
69009;SHT31;56065;52.472;13.380;2023-05-10T05:56:13;14.57;61.93
69009;SHT31;56065;52.472;13.380;2023-05-10T05:58:39;14.83;60.62
69009;SHT31;56065;52.472;13.380;2023-05-10T06:01:04;15.19;60.14
69009;SHT31;56065;52.472;13.380;2023-05-10T06:03:29;15.31;59.33
69009;SHT31;56065;52.472;13.380;2023-05-10T06:05:55;15.77;59.23
69009;SHT31;56065;52.472;13.380;2023-05-10T06:08:20;16.17;57.46
69009;SHT31;56065;52.472;13.380;2023-05-10T06:10:45;17.00;57.38
69009;SHT31;56065;52.472;13.380;2023-05-10T06:13:11;17.85;54.93
69009;SHT31;56065;52.472;13.380;2023-05-10T06:15:36;18.95;53.85
69009;SHT31;56065;52.472;13.380;2023-05-10T06:18:02;19.93;52.51
69009;SHT31;56065;52.472;13.380;2023-05-10T06:20:27;20.69;49.36
69009;SHT31;56065;52.472;13.380;2023-05-10T06:22:52;21.57;49.12
69009;SHT31;56065;52.472;13.380;2023-05-10T06:25:18;22.76;47.60
69009;SHT31;56065;52.472;13.380;2023-05-10T06:27:44;23.59;45.87
69009;SHT31;56065;52.472;13.380;2023-05-10T06:30:09;24.67;44.65
69009;SHT31;56065;52.472;13.380;2023-05-10T06:32:35;25.03;43.47
69009;SHT31;56065;52.472;13.380;2023-05-10T06:35:00;25.29;42.14
69009;SHT31;56065;52.472;13.380;2023-05-10T06:37:26;25.59;42.86
69009;SHT31;56065;52.472;13.380;2023-05-10T06:39:51;26.00;41.72
69009;SHT31;56065;52.472;13.380;2023-05-10T06:42:16;26.35;40.48
69009;SHT31;56065;52.472;13.380;2023-05-10T06:44:42;26.45;40.69
69009;SHT31;56065;52.472;13.380;2023-05-10T06:47:08;27.81;40.42
69009;SHT31;56065;52.472;13.380;2023-05-10T06:49:34;27.23;38.40
69009;SHT31;56065;52.472;13.380;2023-05-10T06:51:59;25.92;39.25
69009;SHT31;56065;52.472;13.380;2023-05-10T06:54:24;27.46;39.59
69009;SHT31;56065;52.472;13.380;2023-05-10T06:56:50;28.22;37.86
69009;SHT31;56065;52.472;13.380;2023-05-10T06:59:15;28.70;37.92
69009;SHT31;56065;52.472;13.380;2023-05-10T07:01:42;29.10;37.73
69009;SHT31;56065;52.472;13.380;2023-05-10T07:04:07;28.86;36.78
69009;SHT31;56065;52.472;13.380;2023-05-10T07:06:33;29.02;36.64
69009;SHT31;56065;52.472;13.380;2023-05-10T07:08:58;29.84;37.16
69009;SHT31;56065;52.472;13.380;2023-05-10T07:11:24;29.58;35.64
69009;SHT31;56065;52.472;13.380;2023-05-10T07:13:49;29.57;35.69
69009;SHT31;56065;52.472;13.380;2023-05-10T07:16:15;29.27;37.16
69009;SHT31;56065;52.472;13.380;2023-05-10T07:18:40;29.90;37.30
69009;SHT31;56065;52.472;13.380;2023-05-10T07:21:05;30.91;36.08
69009;SHT31;56065;52.472;13.380;2023-05-10T07:23:31;30.33;34.86
69009;SHT31;56065;52.472;13.380;2023-05-10T07:25:56;30.36;35.58
69009;SHT31;56065;52.472;13.380;2023-05-10T07:28:23;30.84;34.93
69009;SHT31;56065;52.472;13.380;2023-05-10T07:30:49;30.33;34.89
69009;SHT31;56065;52.472;13.380;2023-05-10T07:33:15;30.73;34.66
69009;SHT31;56065;52.472;13.380;2023-05-10T07:35:41;31.53;35.02
69009;SHT31;56065;52.472;13.380;2023-05-10T07:38:07;32.40;34.13
69009;SHT31;56065;52.472;13.380;2023-05-10T07:40:32;32.62;33.74
69009;SHT31;56065;52.472;13.380;2023-05-10T07:42:58;32.57;32.77
69009;SHT31;56065;52.472;13.380;2023-05-10T07:45:23;33.09;33.19
69009;SHT31;56065;52.472;13.380;2023-05-10T07:47:49;31.96;33.45
69009;SHT31;56065;52.472;13.380;2023-05-10T07:50:15;32.34;33.02
69009;SHT31;56065;52.472;13.380;2023-05-10T07:52:40;32.54;34.01
69009;SHT31;56065;52.472;13.380;2023-05-10T07:55:06;33.40;32.81
69009;SHT31;56065;52.472;13.380;2023-05-10T07:57:33;33.78;32.55
69009;SHT31;56065;52.472;13.380;2023-05-10T07:59:58;32.70;32.77
69009;SHT31;56065;52.472;13.380;2023-05-10T08:02:24;32.92;33.23
69009;SHT31;56065;52.472;13.380;2023-05-10T08:04:49;32.99;33.21
69009;SHT31;56065;52.472;13.380;2023-05-10T08:07:14;33.12;32.55
69009;SHT31;56065;52.472;13.380;2023-05-10T08:09:40;33.70;32.77
69009;SHT31;56065;52.472;13.380;2023-05-10T08:12:05;34.14;32.28
69009;SHT31;56065;52.472;13.380;2023-05-10T08:14:31;35.40;31.61
69009;SHT31;56065;52.472;13.380;2023-05-10T08:16:56;35.91;30.66
69009;SHT31;56065;52.472;13.380;2023-05-10T08:19:22;36.40;30.60
69009;SHT31;56065;52.472;13.380;2023-05-10T08:21:48;35.39;29.78
69009;SHT31;56065;52.472;13.380;2023-05-10T08:24:14;36.02;29.66
69009;SHT31;56065;52.472;13.380;2023-05-10T08:26:39;36.01;29.87
69009;SHT31;56065;52.472;13.380;2023-05-10T08:29:05;35.76;29.89
69009;SHT31;56065;52.472;13.380;2023-05-10T08:31:30;36.33;29.62
69009;SHT31;56065;52.472;13.380;2023-05-10T08:33:56;35.51;30.55
69009;SHT31;56065;52.472;13.380;2023-05-10T08:36:21;35.40;30.14
69009;SHT31;56065;52.472;13.380;2023-05-10T08:38:53;34.66;31.16
69009;SHT31;56065;52.472;13.380;2023-05-10T08:41:21;33.69;31.73
69009;SHT31;56065;52.472;13.380;2023-05-10T08:43:50;34.27;31.33
69009;SHT31;56065;52.472;13.380;2023-05-10T08:46:17;32.74;32.53
69009;SHT31;56065;52.472;13.380;2023-05-10T08:48:44;35.23;31.77
69009;SHT31;56065;52.472;13.380;2023-05-10T08:51:14;36.56;30.59
69009;SHT31;56065;52.472;13.380;2023-05-10T08:53:40;36.62;30.03
69009;SHT31;56065;52.472;13.380;2023-05-10T08:56:06;35.91;30.43
69009;SHT31;56065;52.472;13.380;2023-05-10T08:58:31;35.74;30.61
69009;SHT31;56065;52.472;13.380;2023-05-10T09:00:57;36.35;29.84
69009;SHT31;56065;52.472;13.380;2023-05-10T09:03:23;36.55;29.50
69009;SHT31;56065;52.472;13.380;2023-05-10T09:05:48;36.27;30.09
69009;SHT31;56065;52.472;13.380;2023-05-10T09:08:15;37.10;29.93
69009;SHT31;56065;52.472;13.380;2023-05-10T09:10:43;37.81;29.09
69009;SHT31;56065;52.472;13.380;2023-05-10T09:13:10;38.86;28.61
69009;SHT31;56065;52.472;13.380;2023-05-10T09:15:36;39.01;28.65
69009;SHT31;56065;52.472;13.380;2023-05-10T09:18:02;39.00;28.92
69009;SHT31;56065;52.472;13.380;2023-05-10T09:20:27;39.00;28.42
69009;SHT31;56065;52.472;13.380;2023-05-10T09:22:53;38.52;28.77
69009;SHT31;56065;52.472;13.380;2023-05-10T09:25:19;38.70;28.86
69009;SHT31;56065;52.472;13.380;2023-05-10T09:27:46;38.15;29.01
69009;SHT31;56065;52.472;13.380;2023-05-10T09:30:24;38.40;28.96
69009;SHT31;56065;52.472;13.380;2023-05-10T09:32:50;37.98;29.27
69009;SHT31;56065;52.472;13.380;2023-05-10T09:35:17;38.04;29.27
69009;SHT31;56065;52.472;13.380;2023-05-10T09:37:44;37.96;29.51
69009;SHT31;56065;52.472;13.380;2023-05-10T09:42:43;37.08;30.11
69009;SHT31;56065;52.472;13.380;2023-05-10T09:45:15;36.52;29.96
69009;SHT31;56065;52.472;13.380;2023-05-10T09:47:40;37.03;29.66
69009;SHT31;56065;52.472;13.380;2023-05-10T09:50:06;37.31;29.08
69009;SHT31;56065;52.472;13.380;2023-05-10T09:55:11;35.78;30.16
69009;SHT31;56065;52.472;13.380;2023-05-10T09:57:37;35.30;31.28
69009;SHT31;56065;52.472;13.380;2023-05-10T10:00:03;35.71;30.27
69009;SHT31;56065;52.472;13.380;2023-05-10T10:02:31;35.20;30.68
69009;SHT31;56065;52.472;13.380;2023-05-10T10:04:56;35.39;30.98
69009;SHT31;56065;52.472;13.380;2023-05-10T10:07:23;35.30;30.33
69009;SHT31;56065;52.472;13.380;2023-05-10T10:09:50;36.91;30.70
69009;SHT31;56065;52.472;13.380;2023-05-10T10:12:16;37.57;29.39
69009;SHT31;56065;52.472;13.380;2023-05-10T10:14:41;36.29;29.63
69009;SHT31;56065;52.472;13.380;2023-05-10T10:17:07;37.55;29.94
69009;SHT31;56065;52.472;13.380;2023-05-10T10:19:34;38.22;29.09
69009;SHT31;56065;52.472;13.380;2023-05-10T10:22:00;38.18;28.39
69009;SHT31;56065;52.472;13.380;2023-05-10T10:24:25;37.38;29.04
69009;SHT31;56065;52.472;13.380;2023-05-10T10:26:53;37.78;29.79
69009;SHT31;56065;52.472;13.380;2023-05-10T10:29:31;38.52;29.39
69009;SHT31;56065;52.472;13.380;2023-05-10T10:32:24;35.84;29.74
69009;SHT31;56065;52.472;13.380;2023-05-10T10:34:50;34.27;31.29
69009;SHT31;56065;52.472;13.380;2023-05-10T10:37:17;35.03;31.09
69009;SHT31;56065;52.472;13.380;2023-05-10T10:39:42;36.66;30.83
69009;SHT31;56065;52.472;13.380;2023-05-10T10:42:07;36.04;29.74
69009;SHT31;56065;52.472;13.380;2023-05-10T10:49:51;35.88;29.96
69009;SHT31;56065;52.472;13.380;2023-05-10T10:52:28;36.04;29.86
69009;SHT31;56065;52.472;13.380;2023-05-10T10:57:46;36.84;29.72
69009;SHT31;56065;52.472;13.380;2023-05-10T11:00:30;35.88;30.18
69009;SHT31;56065;52.472;13.380;2023-05-10T11:03:06;37.01;29.03
69009;SHT31;56065;52.472;13.380;2023-05-10T11:08:11;36.45;29.87
69009;SHT31;56065;52.472;13.380;2023-05-10T11:10:37;36.56;29.54
69009;SHT31;56065;52.472;13.380;2023-05-10T11:13:08;37.57;28.75
69009;SHT31;56065;52.472;13.380;2023-05-10T11:15:36;36.50;29.47
69009;SHT31;56065;52.472;13.380;2023-05-10T11:18:19;36.25;29.55
69009;SHT31;56065;52.472;13.380;2023-05-10T11:20:50;35.68;30.88
69009;SHT31;56065;52.472;13.380;2023-05-10T11:23:16;36.76;29.83
69009;SHT31;56065;52.472;13.380;2023-05-10T11:25:43;36.40;29.97
69009;SHT31;56065;52.472;13.380;2023-05-10T11:28:09;36.45;29.62
69009;SHT31;56065;52.472;13.380;2023-05-10T11:30:36;36.99;29.47
69009;SHT31;56065;52.472;13.380;2023-05-10T11:33:02;36.29;28.93
69009;SHT31;56065;52.472;13.380;2023-05-10T11:35:27;37.30;28.99
69009;SHT31;56065;52.472;13.380;2023-05-10T11:37:53;37.10;29.17
69009;SHT31;56065;52.472;13.380;2023-05-10T11:40:18;36.42;29.55
69009;SHT31;56065;52.472;13.380;2023-05-10T11:42:44;36.53;28.88
69009;SHT31;56065;52.472;13.380;2023-05-10T11:45:10;36.49;29.16
69009;SHT31;56065;52.472;13.380;2023-05-10T11:47:36;36.55;28.22
69009;SHT31;56065;52.472;13.380;2023-05-10T11:50:02;35.90;29.89
69009;SHT31;56065;52.472;13.380;2023-05-10T11:52:27;36.66;29.80
69009;SHT31;56065;52.472;13.380;2023-05-10T11:54:54;37.16;28.98
69009;SHT31;56065;52.472;13.380;2023-05-10T11:57:25;37.85;28.95
69009;SHT31;56065;52.472;13.380;2023-05-10T11:59:54;37.20;29.41
69009;SHT31;56065;52.472;13.380;2023-05-10T12:02:21;35.99;28.88
69009;SHT31;56065;52.472;13.380;2023-05-10T12:04:47;36.42;28.87
69009;SHT31;56065;52.472;13.380;2023-05-10T12:07:12;37.20;29.76
69009;SHT31;56065;52.472;13.380;2023-05-10T12:09:43;37.24;28.48
69009;SHT31;56065;52.472;13.380;2023-05-10T12:12:10;36.45;29.71
69009;SHT31;56065;52.472;13.380;2023-05-10T12:14:36;35.76;29.90
69009;SHT31;56065;52.472;13.380;2023-05-10T12:17:01;34.95;30.56
69009;SHT31;56065;52.472;13.380;2023-05-10T12:19:27;35.25;31.19
69009;SHT31;56065;52.472;13.380;2023-05-10T12:21:52;35.94;30.80
69009;SHT31;56065;52.472;13.380;2023-05-10T12:24:17;36.49;30.51
69009;SHT31;56065;52.472;13.380;2023-05-10T12:26:45;36.32;30.56
69009;SHT31;56065;52.472;13.380;2023-05-10T12:29:20;36.50;30.24
69009;SHT31;56065;52.472;13.380;2023-05-10T12:31:52;35.73;29.77
69009;SHT31;56065;52.472;13.380;2023-05-10T12:34:26;36.27;29.42
69009;SHT31;56065;52.472;13.380;2023-05-10T12:36:55;36.49;30.91
69009;SHT31;56065;52.472;13.380;2023-05-10T12:39:20;36.70;30.08
69009;SHT31;56065;52.472;13.380;2023-05-10T12:41:46;37.10;29.76
69009;SHT31;56065;52.472;13.380;2023-05-10T12:44:11;37.04;29.95
69009;SHT31;56065;52.472;13.380;2023-05-10T12:46:37;37.26;29.74
69009;SHT31;56065;52.472;13.380;2023-05-10T12:49:02;36.59;28.83
69009;SHT31;56065;52.472;13.380;2023-05-10T12:51:27;36.27;29.93
69009;SHT31;56065;52.472;13.380;2023-05-10T12:53:53;34.76;30.40
69009;SHT31;56065;52.472;13.380;2023-05-10T12:56:19;35.84;30.25
69009;SHT31;56065;52.472;13.380;2023-05-10T12:58:45;36.45;30.11
69009;SHT31;56065;52.472;13.380;2023-05-10T13:01:13;34.56;30.98
69009;SHT31;56065;52.472;13.380;2023-05-10T13:03:38;35.10;30.79
69009;SHT31;56065;52.472;13.380;2023-05-10T13:06:04;35.33;31.02
69009;SHT31;56065;52.472;13.380;2023-05-10T13:08:29;34.55;31.12
69009;SHT31;56065;52.472;13.380;2023-05-10T13:10:58;34.96;30.86
69009;SHT31;56065;52.472;13.380;2023-05-10T13:13:24;35.62;31.14
69009;SHT31;56065;52.472;13.380;2023-05-10T13:15:49;35.57;30.12
69009;SHT31;56065;52.472;13.380;2023-05-10T13:18:14;35.99;30.75
69009;SHT31;56065;52.472;13.380;2023-05-10T13:20:40;35.80;29.74
69009;SHT31;56065;52.472;13.380;2023-05-10T13:23:05;35.40;29.81
69009;SHT31;56065;52.472;13.380;2023-05-10T13:25:31;34.75;30.10
69009;SHT31;56065;52.472;13.380;2023-05-10T13:27:56;34.81;30.63
69009;SHT31;56065;52.472;13.380;2023-05-10T13:30:21;34.56;30.69
69009;SHT31;56065;52.472;13.380;2023-05-10T13:32:48;34.55;30.46
69009;SHT31;56065;52.472;13.380;2023-05-10T13:35:13;34.79;29.86
69009;SHT31;56065;52.472;13.380;2023-05-10T13:37:38;35.09;30.04
69009;SHT31;56065;52.472;13.380;2023-05-10T13:40:04;34.93;30.42
69009;SHT31;56065;52.472;13.380;2023-05-10T13:42:30;35.54;30.18
69009;SHT31;56065;52.472;13.380;2023-05-10T13:44:57;35.02;30.37
69009;SHT31;56065;52.472;13.380;2023-05-10T13:47:22;34.44;30.40
69009;SHT31;56065;52.472;13.380;2023-05-10T13:49:47;33.94;31.44
69009;SHT31;56065;52.472;13.380;2023-05-10T13:52:13;32.92;30.94
69009;SHT31;56065;52.472;13.380;2023-05-10T13:54:39;32.85;31.65
69009;SHT31;56065;52.472;13.380;2023-05-10T13:57:04;32.88;31.45
69009;SHT31;56065;52.472;13.380;2023-05-10T13:59:30;32.41;31.08
69009;SHT31;56065;52.472;13.380;2023-05-10T14:01:57;32.40;31.44
69009;SHT31;56065;52.472;13.380;2023-05-10T14:04:22;33.25;31.97
69009;SHT31;56065;52.472;13.380;2023-05-10T14:06:47;32.95;30.87
69009;SHT31;56065;52.472;13.380;2023-05-10T14:09:13;32.98;31.05
69009;SHT31;56065;52.472;13.380;2023-05-10T14:11:39;33.56;30.67
69009;SHT31;56065;52.472;13.380;2023-05-10T14:14:11;33.52;30.46
69009;SHT31;56065;52.472;13.380;2023-05-10T14:16:36;33.23;31.74
69009;SHT31;56065;52.472;13.380;2023-05-10T14:19:02;32.48;31.28
69009;SHT31;56065;52.472;13.380;2023-05-10T14:21:27;32.53;31.43
69009;SHT31;56065;52.472;13.380;2023-05-10T14:23:55;31.47;32.08
69009;SHT31;56065;52.472;13.380;2023-05-10T14:26:21;30.83;32.49
69009;SHT31;56065;52.472;13.380;2023-05-10T14:28:47;31.04;32.44
69009;SHT31;56065;52.472;13.380;2023-05-10T14:31:12;30.20;33.31
69009;SHT31;56065;52.472;13.380;2023-05-10T14:33:37;30.22;34.01
69009;SHT31;56065;52.472;13.380;2023-05-10T14:36:03;30.47;33.56
69009;SHT31;56065;52.472;13.380;2023-05-10T14:38:29;30.48;33.56
69009;SHT31;56065;52.472;13.380;2023-05-10T14:40:54;30.53;34.09
69009;SHT31;56065;52.472;13.380;2023-05-10T14:43:20;30.16;34.01
69009;SHT31;56065;52.472;13.380;2023-05-10T14:45:45;29.84;34.18
69009;SHT31;56065;52.472;13.380;2023-05-10T14:48:11;28.86;34.76
69009;SHT31;56065;52.472;13.380;2023-05-10T14:50:40;28.97;35.46
69009;SHT31;56065;52.472;13.380;2023-05-10T14:53:06;28.44;34.95
69009;SHT31;56065;52.472;13.380;2023-05-10T14:55:31;28.26;35.60
69009;SHT31;56065;52.472;13.380;2023-05-10T14:57:57;28.29;36.05
69009;SHT31;56065;52.472;13.380;2023-05-10T15:00:23;28.84;35.69
69009;SHT31;56065;52.472;13.380;2023-05-10T15:02:48;29.17;35.30
69009;SHT31;56065;52.472;13.380;2023-05-10T15:05:14;29.00;35.85
69009;SHT31;56065;52.472;13.380;2023-05-10T15:07:39;28.73;35.98
69009;SHT31;56065;52.472;13.380;2023-05-10T15:10:05;29.18;35.97
69009;SHT31;56065;52.472;13.380;2023-05-10T15:12:31;29.24;35.38
69009;SHT31;56065;52.472;13.380;2023-05-10T15:14:56;29.58;36.05
69009;SHT31;56065;52.472;13.380;2023-05-10T15:17:22;29.59;35.51
69009;SHT31;56065;52.472;13.380;2023-05-10T15:19:47;29.37;35.15
69009;SHT31;56065;52.472;13.380;2023-05-10T15:22:14;29.21;36.12
69009;SHT31;56065;52.472;13.380;2023-05-10T15:24:39;28.84;35.50
69009;SHT31;56065;52.472;13.380;2023-05-10T15:27:04;28.57;36.44
69009;SHT31;56065;52.472;13.380;2023-05-10T15:29:30;27.78;36.40
69009;SHT31;56065;52.472;13.380;2023-05-10T15:31:56;27.83;36.71
69009;SHT31;56065;52.472;13.380;2023-05-10T15:34:22;27.47;37.23
69009;SHT31;56065;52.472;13.380;2023-05-10T15:36:47;27.87;37.81
69009;SHT31;56065;52.472;13.380;2023-05-10T15:39:12;28.05;37.10
69009;SHT31;56065;52.472;13.380;2023-05-10T15:41:38;27.76;37.58